KCNW/CNW METAR and TAF weather

Enter ICAO airport designator
Station Type Date Time Source
KCNW METAR 2021/05/14 03:55 UTC NOAA

KCNW 140355Z 04003KT 10SM SKC 15/14 A3023


Station Type Date Time Source
KCNW Decoded METAR 2021/05/14 03:55 UTC NOAA

Station name not available
May 13, 2021 - 11:55 PM EDT / 2021.05.14 0355 UTC
Wind: from the NE (040 degrees) at 3 MPH (3 KT):0
Visibility: 10 mile(s):0
Sky conditions: clear
Temperature: 59 F (15 C)
Dew Point: 57 F (14 C)
Relative Humidity: 93%
Pressure (altimeter): 30.23 in. Hg (1023 hPa)
ob: KCNW 140355Z 04003KT 10SM SKC 15/14 A3023
cycle: 4

Station Type Date Time Source
KCNW TAF UTC NOAA

Error!

Example: see airport list